Main page
METAR-TAF:

METAR-TAF

Airports :

Umeå Airport

Umeå, Sweden

latitude: 63-48N, longitude: 020-17E, elevation: 7 m

Current weather observation

The report was made 27 minutes ago, at 15:20 UTC
Wind 10 kt from the Southeast
Temperature 19°C
Humidity 60%
Pressure 1013 hPa
Visibility 10 km or more
no clouds below 1500 m and no cumulonimbus

METAR: ESNU 201520Z 13010KT CAVOK 19/11 Q1013

Time: 17:47 (15:47 UTC)

Forecast

The report was made 1 hour and 17 minutes ago, at 14:30 UTC
Forecast valid from 20 at 15 UTC to 20 at 24 UTC
Wind 8 kt from the South
Visibility 10 km or more
no clouds below 1500 m and no cumulonimbus

TAF: ESNU 201430Z 2015/2024 17008KT CAVOK

Weather observations and forecasts of more than 4000 airports (METAR and TAF reports).

The available stations are represented by yellow and red dots on the map.

Hover mouse over dot to see the name of the station.

Then click to see weather observations and forecasts.

To change the map : click on the green buttons with a black cross to zoom in, on the green button with a dash to zoom out, or on the green arrows for adjacent maps.


METAR-TAF: